Decoded Metar for CYLD (CHAPLEAU in ON, CANADA) (IATA:YLD) | Meteo·Mobile Aviation Weather
aviador You're here:

CYLD Decoded Metar

CHAPLEAU in ON, CANADA
Report Time2019-08-21 18:00:00
UTC Time2019-08-21 19:10:25
Flight Rules Old
Wind290° at 06 kt
W.Decomp.*RWY 28: 5.7 kt HW 2.0 kt RCW
RWY 23: 2.2 kt HW 5.6 kt RCW
Visibility9999 m
Phenomena:N/A
Clouds:Few 051 Hf
Scattered 280 Hf
Expected CloudBase > 4,800 ft AGL from Temp-Dew spread
CeilingNone
Temp20°C (ISA +8)
Dew Point08°C (46% RH)
AAT17.4°C
QNH1010 hPa
Density Alt2,641 ft
Elevation1,467 ft
Report Wrong Elevation
Raw Report
CYLD 211800Z 29006KT 280V350 15SM FEW051 SCT280 20/08 A2983 RMK
CU1CC2 SLP109 DENSITY ALT 2600FT=

Extra information for CYLD:More info

Metar Taf Metar & Taf Last 4 Metars F.Rules Stats Wind Profile Meteogram Temp Stats Airport Information Weather charts Add Link Nearby VenuesMetar ALERT Operation Metar Decoded Social comments